Time;durP1;ratioP1;P1;durP2;ratioP2;P2;SDS_P1;SDS_P2;PMS_P1;PMS_P2;Temp;Humidity;BMP_temperature;BMP_pressure;BME280_temperature;BME280_humidity;BME280_pressure;Samples;Min_cycle;Max_cycle;Signal;HPM_P1;HPM_P2
2023/03/18 00:09:12;;;;;;;4.27;2.70;;;;;;;-143.84;44.52;45197.59;5048408;28;20551;-77
2023/03/18 00:11:40;;;;;;;2.37;1.67;;;;;;;-143.84;44.57;45170.94;5069587;28;20447;-77
2023/03/18 00:14:08;;;;;;;7.20;2.63;;;;;;;-143.84;44.92;45222.34;5068744;28;20575;-77
2023/03/18 00:16:36;;;;;;;14.30;2.63;;;;;;;-143.84;44.39;45218.53;5068565;28;20447;-77
2023/03/18 00:19:04;;;;;;;3.27;2.30;;;;;;;-143.84;44.66;45174.75;5069549;28;20432;-77
2023/03/18 00:21:31;;;;;;;3.30;3.00;;;;;;;-143.84;45.01;45178.56;5068713;28;20481;-77
2023/03/18 00:23:59;;;;;;;2.53;2.33;;;;;;;-143.84;44.92;45195.69;5069118;28;20452;-77
2023/03/18 00:26:28;;;;;;;6.67;2.17;;;;;;;-143.84;45.13;45188.06;5070177;28;20437;-77
2023/03/18 00:28:57;;;;;;;5.00;2.13;;;;;;;-143.84;45.24;45201.41;5070601;28;20469;-77
2023/03/18 00:31:26;;;;;;;3.13;2.50;;;;;;;-143.84;45.01;45180.47;5070031;28;20449;-77
2023/03/18 00:33:53;;;;;;;3.30;2.60;;;;;;;-143.84;45.79;45172.84;5070470;28;20472;-77
2023/03/18 00:36:25;;;;;;;2.70;2.20;;;;;;;-143.84;45.83;45222.34;5070277;28;20490;-77
2023/03/18 00:38:56;;;;;;;3.60;2.23;;;;;;;-143.84;45.45;45220.44;5070379;28;21080;-77
2023/03/18 00:41:24;;;;;;;5.33;1.90;;;;;;;-143.84;45.11;45189.97;5070195;28;20461;-77
2023/03/18 00:43:53;;;;;;;5.67;2.17;;;;;;;-143.84;45.77;45167.13;5070002;28;20491;-77
2023/03/18 00:46:24;;;;;;;8.43;2.17;;;;;;;-143.84;45.72;45174.75;5070324;28;20502;-77
2023/03/18 00:48:52;;;;;;;3.47;2.60;;;;;;;-143.84;45.32;45180.47;5070076;28;20453;-77
2023/03/18 00:51:21;;;;;;;5.23;2.70;;;;;;;-143.84;45.87;45180.47;5070028;28;20441;-75
2023/03/18 00:53:50;;;;;;;3.70;2.20;;;;;;;-143.84;46.15;45176.66;5069760;28;20503;-75
2023/03/18 00:56:19;;;;;;;3.63;2.60;;;;;;;-143.84;46.32;45176.66;5069872;28;20444;-75
2023/03/18 00:58:47;;;;;;;5.27;2.70;;;;;;;-143.84;46.83;45199.50;5069511;28;20845;-75
2023/03/18 01:01:18;;;;;;;4.73;2.90;;;;;;;-143.84;46.80;45199.50;5069877;28;20508;-75
2023/03/18 01:03:46;;;;;;;8.17;3.30;;;;;;;-143.84;46.69;45174.75;5069777;28;20514;-75
2023/03/18 01:06:19;;;;;;;6.90;3.40;;;;;;;-143.84;46.95;45189.97;5069981;28;20441;-76
2023/03/18 01:08:55;;;;;;;3.50;3.10;;;;;;;-143.84;47.90;45207.13;5069110;28;20559;-77
2023/03/18 01:11:28;;;;;;;4.20;2.70;;;;;;;-143.84;47.89;45224.25;5069706;28;20421;-77
2023/03/18 01:13:55;;;;;;;3.90;3.50;;;;;;;-143.84;47.45;45205.22;5069325;28;20491;-77
2023/03/18 01:16:24;;;;;;;4.93;3.17;;;;;;;-143.84;47.27;45169.03;5069474;28;21000;-77
2023/03/18 01:18:51;;;;;;;4.37;3.80;;;;;;;-143.84;47.17;45199.50;5069572;28;20457;-77
2023/03/18 01:21:18;;;;;;;2.83;2.63;;;;;;;-143.84;47.24;45184.25;5069651;28;20460;-77
2023/03/18 01:23:46;;;;;;;7.77;3.93;;;;;;;-143.84;48.20;45197.59;5069988;28;20441;-77
2023/03/18 01:26:13;;;;;;;7.20;3.27;;;;;;;-143.84;48.26;45205.22;5069889;28;20413;-77
2023/03/18 01:28:41;;;;;;;3.10;2.80;;;;;;;-143.84;48.36;45188.06;5069465;28;20444;-75
2023/03/18 01:31:08;;;;;;;6.67;3.97;;;;;;;-143.84;49.00;45172.84;5068464;28;20445;-75
2023/03/18 01:33:37;;;;;;;8.07;3.30;;;;;;;-143.84;48.11;45169.03;5069584;28;20492;-75
2023/03/18 01:36:05;;;;;;;7.20;3.80;;;;;;;-143.84;48.70;45201.41;5069392;28;20514;-75
2023/03/18 01:38:32;;;;;;;4.47;3.20;;;;;;;-143.84;49.15;45207.13;5069717;28;20433;-75
2023/03/18 01:41:01;;;;;;;3.80;3.30;;;;;;;-143.84;48.91;45163.31;5069617;28;20440;-75
2023/03/18 01:43:29;;;;;;;4.93;3.90;;;;;;;-143.84;48.88;45184.25;5069759;28;20445;-75
2023/03/18 01:45:59;;;;;;;5.93;3.10;;;;;;;-143.84;49.09;45186.16;5069132;28;20440;-75
2023/03/18 01:48:30;;;;;;;3.97;3.67;;;;;;;-143.84;49.38;45189.97;5069637;28;20437;-75
2023/03/18 01:51:01;;;;;;;3.50;3.20;;;;;;;-143.84;49.37;45197.59;5069829;28;21280;-75
2023/03/18 01:53:34;;;;;;;7.50;3.33;;;;;;;-143.84;49.31;45184.25;5068222;28;20516;-75
2023/03/18 01:56:02;;;;;;;3.83;3.07;;;;;;;-143.84;49.52;45197.59;5067332;28;20437;-75
2023/03/18 01:58:33;;;;;;;3.70;2.83;;;;;;;-143.84;50.16;45172.84;5067285;28;20455;-75
2023/03/18 02:01:05;;;;;;;6.60;4.00;;;;;;;-143.84;50.36;45195.69;5067301;28;20506;-75
2023/03/18 02:03:34;;;;;;;4.33;3.47;;;;;;;-143.84;50.22;45209.03;5067130;28;21028;-75
2023/03/18 02:06:03;;;;;;;3.93;3.03;;;;;;;-143.84;50.19;45212.84;5067522;28;21183;-75
2023/03/18 02:08:30;;;;;;;14.23;3.67;;;;;;;-143.84;50.29;45195.69;5068319;28;20544;-76
2023/03/18 02:10:57;;;;;;;8.20;3.23;;;;;;;-143.84;49.57;45201.41;5070900;28;20599;-75
2023/03/18 02:13:26;;;;;;;3.73;3.10;;;;;;;-143.84;49.60;45178.56;5072149;28;20476;-75
2023/03/18 02:15:57;;;;;;;3.20;2.90;;;;;;;-143.84;49.70;45157.59;5072606;28;20536;-75
2023/03/18 02:18:29;;;;;;;7.63;3.47;;;;;;;-143.84;49.14;45186.16;5073033;28;20433;-75
2023/03/18 02:21:16;;;;;;;3.47;3.17;;;;;;;-143.84;49.58;45201.41;5072802;28;20440;-77
2023/03/18 02:23:53;;;;;;;3.20;2.90;;;;;;;-143.84;50.11;45245.19;5073640;28;20444;-77
2023/03/18 02:26:27;;;;;;;3.80;2.80;;;;;;;-143.84;50.61;45184.25;5071778;28;20495;-77
2023/03/18 02:29:03;;;;;;;3.60;2.50;;;;;;;-143.84;51.44;45132.84;5072890;28;20483;-77
2023/03/18 02:31:32;;;;;;;3.23;3.03;;;;;;;-143.84;51.54;45186.16;5073882;28;20433;-77
2023/03/18 02:33:59;;;;;;;5.80;3.47;;;;;;;-143.84;51.48;45205.22;5072825;28;20476;-77
2023/03/18 02:36:29;;;;;;;5.33;3.20;;;;;;;-143.84;51.95;45243.31;5073046;28;20436;-78
2023/03/18 02:38:59;;;;;;;5.70;3.17;;;;;;;-143.84;51.80;45209.03;5073126;28;20953;-78
2023/03/18 02:41:28;;;;;;;3.63;3.33;;;;;;;-143.84;52.30;45205.22;5073105;28;20883;-77
2023/03/18 02:43:57;;;;;;;11.20;3.40;;;;;;;-143.84;52.69;45174.75;5073108;28;20437;-78
2023/03/18 02:46:31;;;;;;;3.93;3.57;;;;;;;-143.84;52.13;45167.13;5073183;28;20452;-78
2023/03/18 02:49:00;;;;;;;4.43;3.33;;;;;;;-143.84;51.97;45201.41;5072816;28;20444;-78
2023/03/18 02:51:29;;;;;;;4.20;3.73;;;;;;;-143.84;52.20;45214.72;5072836;28;20433;-79
2023/03/18 02:54:01;;;;;;;6.83;3.80;;;;;;;-143.84;52.36;45207.13;5072930;28;20538;-78
2023/03/18 02:56:28;;;;;;;4.13;3.50;;;;;;;-143.84;52.54;45186.16;5072920;28;20451;-77
2023/03/18 02:58:57;;;;;;;4.90;3.50;;;;;;;-143.84;53.18;45188.06;5072940;28;20520;-78
2023/03/18 03:01:24;;;;;;;4.67;3.10;;;;;;;-143.84;53.09;45180.47;5072588;28;20527;-78
2023/03/18 03:03:51;;;;;;;3.13;2.83;;;;;;;-143.84;52.88;45205.22;5072671;28;20961;-78
2023/03/18 03:06:18;;;;;;;5.90;3.87;;;;;;;-143.84;52.83;45203.31;5072522;28;20444;-77
2023/03/18 03:08:46;;;;;;;3.40;3.10;;;;;;;-143.84;53.24;45205.22;5072060;28;20546;-77
2023/03/18 03:11:13;;;;;;;11.37;3.70;;;;;;;-143.84;53.51;45201.41;5072602;28;20440;-77
2023/03/18 03:13:44;;;;;;;3.50;2.87;;;;;;;-143.84;53.65;45197.59;5072180;28;20480;-77
2023/03/18 03:16:14;;;;;;;6.37;4.00;;;;;;;-143.84;53.72;45180.47;5072764;28;20437;-77
2023/03/18 03:18:42;;;;;;;6.03;3.30;;;;;;;-143.84;53.45;45193.78;5070922;28;20449;-77
2023/03/18 03:21:10;;;;;;;4.37;3.27;;;;;;;-143.84;53.11;45203.31;5071535;28;20453;-77
2023/03/18 03:23:37;;;;;;;4.47;3.17;;;;;;;-143.84;53.18;45209.03;5071564;28;20444;-78
2023/03/18 03:26:06;;;;;;;5.83;3.00;;;;;;;-143.84;53.49;45210.94;5072380;28;20445;-77
2023/03/18 03:28:34;;;;;;;3.80;3.37;;;;;;;-143.84;53.00;45203.31;5071338;28;20954;-77
2023/03/18 03:31:02;;;;;;;5.80;3.80;;;;;;;-143.84;53.14;45199.50;5071879;28;20947;-77
2023/03/18 03:33:30;;;;;;;3.43;3.13;;;;;;;-143.84;53.41;45239.50;5071525;28;20484;-77
2023/03/18 03:35:58;;;;;;;8.60;3.53;;;;;;;-143.84;53.58;45210.94;5071795;28;21258;-77
2023/03/18 03:38:25;;;;;;;4.33;3.10;;;;;;;-143.84;53.92;45193.78;5072002;28;21157;-77
2023/03/18 03:40:53;;;;;;;3.00;2.70;;;;;;;-143.84;54.72;45201.41;5072012;28;20450;-79
2023/03/18 03:43:21;;;;;;;3.30;2.80;;;;;;;-143.84;54.66;45231.88;5070094;28;20445;-79
2023/03/18 03:45:48;;;;;;;7.83;3.37;;;;;;;-143.84;55.31;45193.78;5071200;28;20444;-79
2023/03/18 03:48:15;;;;;;;3.33;2.60;;;;;;;-143.84;54.99;45169.03;5072034;28;20494;-79
2023/03/18 03:50:44;;;;;;;3.70;3.37;;;;;;;-143.84;54.94;45197.59;5071436;28;20441;-79
2023/03/18 03:53:12;;;;;;;7.90;2.87;;;;;;;-143.84;55.10;45176.66;5071428;28;20515;-79
2023/03/18 03:55:40;;;;;;;6.30;3.77;;;;;;;-143.84;54.97;45191.88;5071386;28;20445;-79
2023/03/18 03:58:07;;;;;;;6.10;3.50;;;;;;;-143.84;54.40;45218.53;5071281;28;20949;-79
2023/03/18 04:00:35;;;;;;;3.20;2.80;;;;;;;-143.84;54.07;45220.44;5071225;28;21275;-79
2023/03/18 04:03:03;;;;;;;4.27;2.63;;;;;;;-143.84;53.78;45212.84;5069740;28;20478;-79
2023/03/18 04:05:30;;;;;;;3.97;3.00;;;;;;;-143.84;54.00;45214.72;5068362;28;20450;-79
2023/03/18 04:07:59;;;;;;;7.70;4.03;;;;;;;-143.84;53.87;45178.56;5069637;28;20448;-79
2023/03/18 04:10:28;;;;;;;6.30;3.17;;;;;;;-143.84;52.47;45195.69;5070599;28;20480;-80
2023/03/18 04:12:55;;;;;;;4.00;3.57;;;;;;;-143.84;52.44;45191.88;5068877;28;20550;-79
2023/03/18 04:15:23;;;;;;;4.23;3.23;;;;;;;-143.84;52.45;45212.84;5068279;28;20483;-80
2023/03/18 04:17:50;;;;;;;6.80;3.50;;;;;;;-143.84;52.21;45205.22;5069888;28;20856;-79
2023/03/18 04:20:18;;;;;;;14.37;3.47;;;;;;;-143.84;52.48;45199.50;5070267;28;20522;-79
2023/03/18 04:22:46;;;;;;;7.40;3.37;;;;;;;-143.84;52.34;45222.34;5069913;28;20437;-79
2023/03/18 04:25:14;;;;;;;3.50;3.20;;;;;;;-143.84;52.45;45214.72;5070349;28;20498;-78
2023/03/18 04:27:42;;;;;;;3.77;3.07;;;;;;;-143.84;52.64;45205.22;5070756;28;20527;-79
2023/03/18 04:30:11;;;;;;;5.20;2.93;;;;;;;-143.84;52.01;45222.34;5070421;28;20450;-79
2023/03/18 04:32:39;;;;;;;6.10;2.90;;;;;;;-143.84;52.41;45203.31;5070069;28;20437;-79
2023/03/18 04:35:07;;;;;;;5.40;3.10;;;;;;;-143.84;52.72;45205.22;5070647;28;21076;-79
2023/03/18 04:37:35;;;;;;;3.60;2.53;;;;;;;-143.84;51.76;45193.78;5070816;28;20447;-79
2023/03/18 04:40:04;;;;;;;3.90;3.07;;;;;;;-143.84;52.38;45212.84;5070775;28;20436;-79
2023/03/18 04:42:32;;;;;;;3.17;2.20;;;;;;;-143.84;52.27;45216.63;5070646;28;20946;-79
2023/03/18 04:45:00;;;;;;;6.93;3.10;;;;;;;-143.84;51.98;45231.88;5070662;28;20435;-79
2023/03/18 04:47:28;;;;;;;8.30;3.23;;;;;;;-143.84;51.70;45205.22;5070289;28;20919;-79
2023/03/18 04:49:55;;;;;;;4.23;2.40;;;;;;;-143.84;51.32;45201.41;5070731;28;20445;-79
2023/03/18 04:52:23;;;;;;;4.30;2.53;;;;;;;-143.84;51.65;45220.44;5070326;28;20444;-79
2023/03/18 04:54:50;;;;;;;2.87;2.60;;;;;;;-143.84;51.37;45210.94;5070464;28;20564;-79
2023/03/18 04:57:18;;;;;;;4.20;2.87;;;;;;;-143.84;51.70;45210.94;5070608;28;20498;-79
2023/03/18 04:59:47;;;;;;;7.83;2.70;;;;;;;-143.84;51.06;45191.88;5069255;28;20439;-77
2023/03/18 05:02:14;;;;;;;5.60;2.50;;;;;;;-143.84;51.50;45203.31;5070169;28;20433;-80
2023/03/18 05:04:41;;;;;;;5.33;2.90;;;;;;;-143.84;51.47;45193.78;5068637;28;20448;-80
2023/03/18 05:07:10;;;;;;;4.57;2.90;;;;;;;-143.84;52.24;45214.72;5068588;28;20540;-75
2023/03/18 05:09:37;;;;;;;13.03;3.43;;;;;;;-143.84;52.33;45193.78;5068448;28;21132;-75
2023/03/18 05:12:05;;;;;;;3.63;2.53;;;;;;;-143.84;52.32;45218.53;5069526;28;20499;-79
2023/03/18 05:14:32;;;;;;;4.90;3.33;;;;;;;-143.84;52.91;45229.97;5070141;28;20468;-78
2023/03/18 05:17:01;;;;;;;3.13;2.83;;;;;;;-143.84;53.38;45220.44;5070269;28;20432;-78
2023/03/18 05:19:28;;;;;;;5.80;2.90;;;;;;;-143.84;52.98;45189.97;5070271;28;20502;-78
2023/03/18 05:21:55;;;;;;;5.07;3.87;;;;;;;-143.84;53.21;45186.16;5070037;28;20493;-78
2023/03/18 05:24:22;;;;;;;4.77;3.03;;;;;;;-143.84;53.34;45212.84;5070163;28;20497;-78
2023/03/18 05:26:49;;;;;;;7.47;4.07;;;;;;;-143.84;53.17;45203.31;5069781;28;20510;-77
2023/03/18 05:29:16;;;;;;;4.87;3.33;;;;;;;-143.84;53.16;45218.53;5069282;28;20437;-77
2023/03/18 05:31:44;;;;;;;3.73;2.90;;;;;;;-143.84;52.92;45176.66;5069089;28;20443;-77
2023/03/18 05:34:12;;;;;;;5.47;3.40;;;;;;;-143.84;52.94;45189.97;5068504;28;20484;-77
2023/03/18 05:36:39;;;;;;;10.80;3.20;;;;;;;-143.84;53.36;45237.59;5068848;28;20799;-77
2023/03/18 05:39:06;;;;;;;7.10;3.70;;;;;;;-143.84;53.18;45216.63;5069657;28;20506;-77
2023/03/18 05:41:34;;;;;;;8.60;3.70;;;;;;;-143.84;53.07;45176.66;5068951;28;20508;-77
2023/03/18 05:44:01;;;;;;;2.87;2.57;;;;;;;-143.84;53.55;45224.25;5070229;28;20448;-77
2023/03/18 05:46:29;;;;;;;5.10;3.17;;;;;;;-143.84;53.04;45172.84;5071731;28;20853;-77
2023/03/18 05:48:56;;;;;;;8.00;3.67;;;;;;;-143.84;52.55;45165.22;5072877;28;20445;-78
2023/03/18 05:51:25;;;;;;;7.33;4.20;;;;;;;-143.84;52.16;45212.84;5073371;28;20445;-77
2023/03/18 05:53:52;;;;;;;5.20;3.83;;;;;;;-143.84;51.77;45207.13;5072662;28;20451;-77
2023/03/18 05:56:19;;;;;;;5.30;3.33;;;;;;;-143.84;51.56;45212.84;5073122;28;20440;-77
2023/03/18 05:58:46;;;;;;;9.03;4.03;;;;;;;-143.84;50.82;45178.56;5072336;28;20445;-76
2023/03/18 06:01:14;;;;;;;5.10;3.13;;;;;;;-143.84;50.84;45201.41;5072330;28;20947;-76
2023/03/18 06:03:41;;;;;;;7.13;4.60;;;;;;;-143.84;50.67;45207.13;5075034;28;20524;-76
2023/03/18 06:06:08;;;;;;;4.00;3.70;;;;;;;-143.84;50.40;45205.22;5072011;28;20445;-77
2023/03/18 06:08:37;;;;;;;6.90;4.20;;;;;;;-143.84;50.46;45184.25;5071380;28;20441;-76
2023/03/18 06:11:05;;;;;;;4.70;4.00;;;;;;;-143.84;50.21;45176.66;5072132;28;21108;-76
2023/03/18 06:13:32;;;;;;;7.33;4.10;;;;;;;-143.84;51.46;45205.22;5069543;28;20445;-77
2023/03/18 06:16:02;;;;;;;7.50;5.63;;;;;;;-143.84;49.99;45159.50;5069175;28;20557;-77
2023/03/18 06:18:29;;;;;;;9.00;3.57;;;;;;;-143.84;49.24;45193.78;5069155;28;20946;-75
2023/03/18 06:20:57;;;;;;;5.70;3.63;;;;;;;-143.84;48.97;45174.75;5070561;28;20507;-79
2023/03/18 06:23:25;;;;;;;13.40;4.73;;;;;;;-143.84;49.20;45188.06;5070039;28;20445;-78
2023/03/18 06:25:53;;;;;;;7.23;3.87;;;;;;;-143.84;49.79;45207.13;5071269;28;20445;-79
2023/03/18 06:28:20;;;;;;;6.90;4.40;;;;;;;-143.84;49.04;45193.78;5071828;28;20449;-78
2023/03/18 06:30:48;;;;;;;8.83;4.70;;;;;;;-143.84;49.58;45203.31;5070471;28;20954;-78
2023/03/18 06:33:15;;;;;;;8.13;4.70;;;;;;;-143.84;49.53;45174.75;5070373;28;20905;-78
2023/03/18 06:35:42;;;;;;;7.07;4.53;;;;;;;-143.84;49.18;45209.03;5070526;28;20527;-78
2023/03/18 06:38:13;;;;;;;9.40;4.73;;;;;;;-143.84;49.19;45186.16;5070744;28;20469;-79
2023/03/18 06:40:40;;;;;;;8.27;4.80;;;;;;;-143.84;50.16;45176.66;5071237;28;20444;-78
2023/03/18 06:43:09;;;;;;;5.77;4.60;;;;;;;-143.84;49.45;45172.84;5070561;28;20455;-78
2023/03/18 06:45:37;;;;;;;6.30;4.50;;;;;;;-143.84;49.54;45193.78;5071566;28;20440;-79
2023/03/18 06:48:05;;;;;;;6.20;4.47;;;;;;;-143.84;48.25;45184.25;5072056;28;20938;-79
2023/03/18 06:50:32;;;;;;;4.87;4.27;;;;;;;-143.84;48.03;45170.94;5072644;28;20789;-79
2023/03/18 06:52:59;;;;;;;4.50;3.70;;;;;;;-143.84;48.60;45176.66;5071943;28;20439;-79
2023/03/18 06:55:28;;;;;;;4.37;4.00;;;;;;;-143.84;48.17;45184.25;5071074;28;20482;-79
2023/03/18 06:57:55;;;;;;;7.63;4.20;;;;;;;-143.84;47.18;45178.56;5071509;28;20469;-79
2023/03/18 07:00:24;;;;;;;8.33;4.90;;;;;;;-143.84;47.20;45191.88;5071533;28;20518;-79
2023/03/18 07:02:52;;;;;;;6.37;4.70;;;;;;;-143.84;46.78;45170.94;5072404;28;20451;-79
2023/03/18 07:05:20;;;;;;;6.80;4.67;;;;;;;-143.84;46.64;45142.38;5071998;28;20438;-78
2023/03/18 07:07:49;;;;;;;11.70;6.20;;;;;;;-143.84;46.02;45180.47;5071994;28;20446;-77
2023/03/18 07:10:20;;;;;;;10.37;6.57;;;;;;;-143.84;46.80;45174.75;5071689;28;20831;-77
2023/03/18 07:12:47;;;;;;;8.60;5.77;;;;;;;-143.84;46.96;45161.41;5054588;28;20453;-77
2023/03/18 07:15:15;;;;;;;8.10;6.73;;;;;;;-143.84;47.52;45178.56;5071899;28;20529;-77
2023/03/18 07:17:43;;;;;;;11.43;5.80;;;;;;;-143.84;47.09;45180.47;5071833;28;20511;-77
2023/03/18 07:20:12;;;;;;;9.93;5.80;;;;;;;-143.84;46.65;45170.94;5071858;28;20791;-77
2023/03/18 07:22:39;;;;;;;14.50;6.50;;;;;;;-143.84;46.78;45157.59;5071838;28;20444;-77
2023/03/18 07:25:07;;;;;;;7.77;5.73;;;;;;;-143.84;47.14;45159.50;5071493;28;20941;-77
2023/03/18 07:27:34;;;;;;;6.37;5.00;;;;;;;-143.84;45.77;45170.94;5071610;28;20440;-77
2023/03/18 07:30:02;;;;;;;9.40;5.73;;;;;;;-143.84;46.06;45169.03;5071227;28;20439;-76
2023/03/18 07:32:30;;;;;;;14.13;7.07;;;;;;;-143.84;46.01;45146.19;5071241;28;20439;-77
2023/03/18 07:34:59;;;;;;;12.87;6.40;;;;;;;-143.84;45.69;45155.69;5069734;28;20481;-76
2023/03/18 07:37:26;;;;;;;12.27;5.80;;;;;;;-143.84;45.67;45130.94;5070291;28;20534;-76
2023/03/18 07:39:53;;;;;;;8.80;6.10;;;;;;;-143.84;45.58;45159.50;5070605;28;20451;-76
2023/03/18 07:42:20;;;;;;;9.47;6.30;;;;;;;-143.84;45.43;45170.94;5070434;28;20445;-76
2023/03/18 07:44:47;;;;;;;7.37;6.33;;;;;;;-143.84;46.26;45174.75;5070793;28;20443;-75
2023/03/18 07:47:15;;;;;;;9.20;6.57;;;;;;;-143.84;46.47;45189.97;5070635;28;20500;-76
2023/03/18 07:49:42;;;;;;;8.27;7.20;;;;;;;-143.84;47.12;45169.03;5070522;28;21000;-76
2023/03/18 07:52:11;;;;;;;8.93;7.13;;;;;;;-143.84;47.98;45167.13;5070313;28;20450;-76
2023/03/18 07:54:38;;;;;;;10.13;6.50;;;;;;;-143.84;49.40;45169.03;5070457;28;20483;-76
2023/03/18 07:57:05;;;;;;;9.47;6.83;;;;;;;-143.84;50.99;45180.47;5070753;28;20438;-78
2023/03/18 07:59:33;;;;;;;10.87;7.23;;;;;;;-143.84;50.98;45195.69;5070995;28;20959;-77
2023/03/18 08:02:01;;;;;;;9.27;7.30;;;;;;;-143.84;51.25;45176.66;5070948;28;20446;-77
2023/03/18 08:04:28;;;;;;;16.13;8.30;;;;;;;-143.84;52.85;45155.69;5070621;28;20441;-77
2023/03/18 08:06:56;;;;;;;10.23;6.60;;;;;;;-143.84;52.75;45184.25;5070123;28;21010;-77
2023/03/18 08:09:26;;;;;;;13.10;8.47;;;;;;;-143.84;53.58;45140.47;5069909;28;21032;-77
2023/03/18 08:11:54;;;;;;;13.73;8.77;;;;;;;-143.84;53.70;45188.06;5071004;28;20478;-77
2023/03/18 08:14:21;;;;;;;15.40;8.53;;;;;;;-143.84;53.87;45170.94;5068747;28;20433;-77
2023/03/18 08:16:48;;;;;;;12.43;8.03;;;;;;;-143.84;53.81;45186.16;5068989;28;20448;-77
2023/03/18 08:19:15;;;;;;;12.30;8.50;;;;;;;-143.84;55.11;45148.09;5069072;28;20469;-77
2023/03/18 08:21:49;;;;;;;10.73;8.23;;;;;;;-143.84;54.92;45188.06;5066403;28;20476;-77
2023/03/18 08:24:20;;;;;;;8.77;7.57;;;;;;;-143.84;56.78;45161.41;5074301;28;20445;-75
2023/03/18 08:26:48;;;;;;;11.90;8.17;;;;;;;-143.84;55.82;45170.94;5074380;28;20996;-75
2023/03/18 08:29:15;;;;;;;13.50;8.70;;;;;;;-143.84;55.92;45180.47;5074312;28;20862;-77
2023/03/18 08:31:43;;;;;;;12.03;8.00;;;;;;;-143.84;55.84;45186.16;5074976;28;20836;-78
2023/03/18 08:34:10;;;;;;;11.10;8.33;;;;;;;-143.84;55.88;45169.03;5069910;28;21343;-75
2023/03/18 08:36:37;;;;;;;15.93;8.23;;;;;;;-143.84;55.88;45167.13;5069825;28;20738;-75
2023/03/18 08:39:05;;;;;;;13.30;8.40;;;;;;;-143.84;55.33;45165.22;5069637;28;20446;-77
2023/03/18 08:41:33;;;;;;;9.23;7.93;;;;;;;-143.84;55.53;45170.94;5070619;28;20810;-78
2023/03/18 08:44:02;;;;;;;10.20;7.17;;;;;;;-143.84;55.19;45176.66;5071041;28;20445;-79
2023/03/18 08:46:29;;;;;;;10.13;7.63;;;;;;;-143.84;55.29;45169.03;5070729;28;21006;-78
2023/03/18 08:48:58;;;;;;;13.23;8.40;;;;;;;-143.84;55.96;45167.13;5070540;28;20439;-77
2023/03/18 08:51:25;;;;;;;11.50;8.20;;;;;;;-143.84;56.54;45165.22;5069891;28;20434;-79
2023/03/18 08:53:56;;;;;;;11.83;8.00;;;;;;;-143.84;56.96;45180.47;5070309;28;20816;-78
2023/03/18 08:56:23;;;;;;;11.57;8.20;;;;;;;-143.84;56.96;45153.81;5068781;28;20470;-78
2023/03/18 08:58:50;;;;;;;10.37;8.90;;;;;;;-143.84;57.02;45159.50;5070450;28;20456;-78
2023/03/18 09:01:21;;;;;;;8.70;6.90;;;;;;;-143.84;57.17;45159.50;5070324;28;20813;-76
2023/03/18 09:03:48;;;;;;;8.63;7.20;;;;;;;-143.84;57.84;45165.22;5069085;28;20478;-76
2023/03/18 09:06:16;;;;;;;10.37;6.23;;;;;;;-143.84;57.04;45155.69;5070751;28;20455;-77
2023/03/18 09:08:43;;;;;;;10.07;7.27;;;;;;;-143.84;57.63;45178.56;5069565;28;20492;-79
2023/03/18 09:11:12;;;;;;;5.80;5.27;;;;;;;-143.84;58.10;45153.81;5069993;28;20466;-78
2023/03/18 09:13:39;;;;;;;6.50;5.87;;;;;;;-143.84;58.11;45157.59;5070530;28;20543;-79
2023/03/18 09:16:07;;;;;;;9.83;6.60;;;;;;;-143.84;58.21;45165.22;5070327;28;20481;-77
2023/03/18 09:18:36;;;;;;;8.90;6.67;;;;;;;-143.84;58.79;45155.69;5069960;28;20464;-77
2023/03/18 09:21:04;;;;;;;13.60;6.27;;;;;;;-143.84;58.65;45163.31;5073427;28;20536;-77
2023/03/18 09:23:31;;;;;;;10.53;7.10;;;;;;;-143.84;58.41;45153.81;5073669;28;21449;-77
2023/03/18 09:25:59;;;;;;;11.50;6.90;;;;;;;-143.84;55.54;45159.50;5073592;28;20444;-78
2023/03/18 09:28:27;;;;;;;6.80;5.50;;;;;;;-143.84;55.74;45167.13;5074092;28;20536;-78
2023/03/18 09:30:54;;;;;;;6.63;5.43;;;;;;;-143.84;56.90;45170.94;5073189;28;20455;-78
2023/03/18 09:33:22;;;;;;;6.93;6.23;;;;;;;-143.84;57.68;45157.59;5072746;28;20443;-80
2023/03/18 09:35:51;;;;;;;9.93;6.17;;;;;;;-143.84;57.52;45155.69;5073625;28;20474;-78
2023/03/18 09:38:19;;;;;;;6.13;5.40;;;;;;;-143.84;57.61;45174.75;5074442;28;20494;-79
2023/03/18 09:40:56;;;;;;;6.90;6.03;;;;;;;-143.84;58.59;45170.94;5073201;28;20875;-78
2023/03/18 09:43:44;;;;;;;6.47;5.87;;;;;;;-143.84;59.35;45176.66;5073502;28;20499;-78
2023/03/18 09:46:24;;;;;;;9.27;6.40;;;;;;;-143.84;59.59;45144.28;5073791;28;20538;-77
2023/03/18 09:49:03;;;;;;;10.20;7.50;;;;;;;-143.84;59.30;45155.69;5072418;28;20453;-79
2023/03/18 09:51:44;;;;;;;9.73;7.27;;;;;;;-143.84;59.47;45184.25;5071533;28;20516;-78
2023/03/18 09:54:19;;;;;;;7.17;6.33;;;;;;;-143.84;59.74;45159.50;5072054;28;20455;-74
2023/03/18 09:56:46;;;;;;;8.07;6.07;;;;;;;-143.84;60.13;45176.66;5071541;28;20490;-76
2023/03/18 09:59:20;;;;;;;8.53;7.63;;;;;;;-143.84;60.52;45159.50;5073297;28;20443;-76
2023/03/18 10:01:55;;;;;;;7.20;6.20;;;;;;;-143.84;60.54;45161.41;5060484;28;20445;-75
2023/03/18 10:04:25;;;;;;;7.60;6.07;;;;;;;-143.84;61.29;45159.50;5069189;28;20449;-74
2023/03/18 10:06:58;;;;;;;9.00;6.57;;;;;;;-143.84;61.18;45153.81;5069065;28;20442;-73
2023/03/18 10:09:30;;;;;;;8.60;6.60;;;;;;;-143.84;61.99;45184.25;5071133;28;20493;-75
2023/03/18 10:12:06;;;;;;;6.53;5.73;;;;;;;-143.84;61.53;45184.25;5068949;28;21022;-75
2023/03/18 10:14:40;;;;;;;8.07;5.93;;;;;;;-143.84;61.89;45195.69;5072402;28;20526;-73
2023/03/18 10:17:16;;;;;;;6.60;5.50;;;;;;;-143.84;62.41;45163.31;5054183;28;21037;-73
2023/03/18 10:19:48;;;;;;;6.77;5.83;;;;;;;-143.84;63.19;45170.94;5070985;28;20459;-73
2023/03/18 10:22:39;;;;;;;5.70;5.20;;;;;;;-143.84;63.29;45157.59;5071153;28;20451;-74
2023/03/18 10:25:17;;;;;;;6.47;5.60;;;;;;;-143.84;64.38;45169.03;5069023;28;20542;-74
2023/03/18 10:27:53;;;;;;;8.27;6.43;;;;;;;-143.84;63.70;45138.56;5071547;28;20527;-74
2023/03/18 10:30:34;;;;;;;9.10;5.57;;;;;;;-143.84;63.86;45172.84;5071704;28;20449;-74
2023/03/18 10:33:09;;;;;;;6.50;5.60;;;;;;;-143.84;63.54;45148.09;5069165;28;20454;-74
2023/03/18 10:35:42;;;;;;;9.37;6.90;;;;;;;-143.84;64.03;45188.06;5070259;28;21032;-75
2023/03/18 10:38:19;;;;;;;7.80;6.63;;;;;;;-143.84;62.34;45169.03;5071790;28;20439;-74
2023/03/18 10:40:48;;;;;;;11.20;6.17;;;;;;;-143.84;62.88;45163.31;5068868;28;20508;-73
2023/03/18 10:43:18;;;;;;;7.90;5.77;;;;;;;-143.84;63.79;45148.09;5072259;28;20441;-73
2023/03/18 10:45:48;;;;;;;6.60;5.13;;;;;;;-143.84;63.37;45188.06;5070044;28;20516;-73
2023/03/18 10:48:24;;;;;;;7.80;6.47;;;;;;;-143.84;63.73;45150.00;5066952;28;20504;-74
2023/03/18 10:51:01;;;;;;;7.13;6.23;;;;;;;-143.84;64.31;45165.22;5070921;28;21031;-74
2023/03/18 10:53:34;;;;;;;7.90;6.00;;;;;;;-143.84;64.13;45165.22;5071814;28;20438;-74
2023/03/18 10:56:06;;;;;;;5.57;4.80;;;;;;;-143.84;64.80;45188.06;5072090;28;20482;-73
2023/03/18 10:58:34;;;;;;;5.53;5.03;;;;;;;-143.84;64.96;45189.97;5072660;28;20429;-72
2023/03/18 11:01:01;;;;;;;6.87;5.30;;;;;;;-143.84;65.05;45178.56;5070644;28;20441;-72
2023/03/18 11:03:33;;;;;;;5.83;5.30;;;;;;;-143.84;65.52;45172.84;5070531;28;20437;-73
2023/03/18 11:06:03;;;;;;;6.40;5.80;;;;;;;-143.84;65.60;45186.16;5071147;28;20451;-72
2023/03/18 11:08:48;;;;;;;7.47;6.50;;;;;;;-143.84;65.75;45178.56;5071170;28;20468;-73
2023/03/18 11:11:20;;;;;;;6.17;5.57;;;;;;;-143.84;66.01;45161.41;5068051;28;20477;-72
2023/03/18 11:13:51;;;;;;;7.00;5.60;;;;;;;-143.84;66.47;45176.66;5071706;28;20450;-72
2023/03/18 11:16:28;;;;;;;5.90;5.30;;;;;;;-143.84;67.28;45172.84;5071544;28;20476;-72
2023/03/18 11:18:56;;;;;;;9.80;5.80;;;;;;;-143.84;67.69;45165.22;5071014;28;20523;-72
2023/03/18 11:21:25;;;;;;;6.07;5.50;;;;;;;-143.84;68.61;45174.75;5071057;28;20923;-72
2023/03/18 11:24:09;;;;;;;6.50;5.40;;;;;;;-143.84;69.21;45180.47;5071076;28;20454;-73
2023/03/18 11:26:54;;;;;;;8.30;5.33;;;;;;;-143.84;69.71;45184.25;5070606;28;20449;-72
2023/03/18 11:29:24;;;;;;;6.03;5.40;;;;;;;-143.84;70.67;45169.03;5068750;28;20441;-72
2023/03/18 11:31:56;;;;;;;10.57;6.30;;;;;;;-143.84;70.46;45159.50;5068835;28;20583;-72
2023/03/18 11:34:24;;;;;;;6.97;5.57;;;;;;;-143.84;71.38;45157.59;5069302;28;20444;-72